sensor_id;sensor_type;location;lat;lon;timestamp;pressure;altitude;pressure_sealevel;temperature;humidity
22000;BME280;11164;48.818;2.322;2022-07-23T00:01:21;100813.94;;;21.62;51.44
22000;BME280;11164;48.818;2.322;2022-07-23T00:03:47;100811.72;;;21.59;51.78
22000;BME280;11164;48.818;2.322;2022-07-23T00:06:12;100805.44;;;21.58;51.62
22000;BME280;11164;48.818;2.322;2022-07-23T00:08:38;100806.28;;;21.64;51.37
22000;BME280;11164;48.818;2.322;2022-07-23T00:11:03;100814.25;;;21.70;51.54
22000;BME280;11164;48.818;2.322;2022-07-23T00:13:29;100813.94;;;21.62;51.79
22000;BME280;11164;48.818;2.322;2022-07-23T00:15:54;100814.75;;;21.57;52.01
22000;BME280;11164;48.818;2.322;2022-07-23T00:18:20;100800.97;;;21.42;52.24
22000;BME280;11164;48.818;2.322;2022-07-23T00:20:46;100819.63;;;21.45;52.07
22000;BME280;11164;48.818;2.322;2022-07-23T00:23:12;100816.09;;;21.49;52.13
22000;BME280;11164;48.818;2.322;2022-07-23T00:25:37;100822.03;;;21.36;52.68
22000;BME280;11164;48.818;2.322;2022-07-23T00:28:03;100819.16;;;21.10;53.26
22000;BME280;11164;48.818;2.322;2022-07-23T00:30:30;100811.06;;;20.93;53.81
22000;BME280;11164;48.818;2.322;2022-07-23T00:33:01;100814.66;;;20.99;53.93
22000;BME280;11164;48.818;2.322;2022-07-23T00:35:30;100809.75;;;21.01;53.86
22000;BME280;11164;48.818;2.322;2022-07-23T00:37:56;100800.38;;;20.92;53.89
22000;BME280;11164;48.818;2.322;2022-07-23T00:40:22;100804.00;;;21.03;53.71
22000;BME280;11164;48.818;2.322;2022-07-23T00:42:48;100806.69;;;20.97;53.70
22000;BME280;11164;48.818;2.322;2022-07-23T00:45:13;100811.63;;;20.95;54.20
22000;BME280;11164;48.818;2.322;2022-07-23T00:47:39;100806.53;;;20.77;54.31
22000;BME280;11164;48.818;2.322;2022-07-23T00:50:06;100804.78;;;20.60;54.83
22000;BME280;11164;48.818;2.322;2022-07-23T00:52:33;100810.03;;;20.67;54.79
22000;BME280;11164;48.818;2.322;2022-07-23T00:54:59;100804.69;;;20.83;54.28
22000;BME280;11164;48.818;2.322;2022-07-23T00:57:25;100799.50;;;20.86;54.39
22000;BME280;11164;48.818;2.322;2022-07-23T00:59:51;100801.66;;;20.84;54.31
22000;BME280;11164;48.818;2.322;2022-07-23T01:02:16;100801.41;;;20.86;54.47
22000;BME280;11164;48.818;2.322;2022-07-23T01:04:41;100809.09;;;20.89;54.35
22000;BME280;11164;48.818;2.322;2022-07-23T01:07:07;100802.59;;;20.95;54.44
22000;BME280;11164;48.818;2.322;2022-07-23T01:09:33;100801.41;;;20.86;54.35
22000;BME280;11164;48.818;2.322;2022-07-23T01:11:58;100806.81;;;20.75;55.24
22000;BME280;11164;48.818;2.322;2022-07-23T01:14:24;100814.03;;;20.54;55.50
22000;BME280;11164;48.818;2.322;2022-07-23T01:16:50;100806.47;;;20.67;55.16
22000;BME280;11164;48.818;2.322;2022-07-23T01:19:16;100815.56;;;20.72;55.05
22000;BME280;11164;48.818;2.322;2022-07-23T01:21:44;100806.41;;;20.94;54.67
22000;BME280;11164;48.818;2.322;2022-07-23T01:24:11;100806.94;;;20.91;54.87
22000;BME280;11164;48.818;2.322;2022-07-23T01:26:37;100802.28;;;20.91;54.74
22000;BME280;11164;48.818;2.322;2022-07-23T01:29:03;100803.31;;;20.85;54.94
22000;BME280;11164;48.818;2.322;2022-07-23T01:31:29;100810.03;;;20.67;55.24
22000;BME280;11164;48.818;2.322;2022-07-23T01:33:54;100797.25;;;20.51;55.67
22000;BME280;11164;48.818;2.322;2022-07-23T01:36:20;100804.75;;;20.55;55.48
22000;BME280;11164;48.818;2.322;2022-07-23T01:38:45;100795.88;;;20.48;55.61
22000;BME280;11164;48.818;2.322;2022-07-23T01:41:10;100800.25;;;20.49;55.55
22000;BME280;11164;48.818;2.322;2022-07-23T01:43:36;100799.34;;;20.66;55.26
22000;BME280;11164;48.818;2.322;2022-07-23T01:46:01;100795.75;;;20.60;54.96
22000;BME280;11164;48.818;2.322;2022-07-23T01:48:27;100802.00;;;20.55;55.52
22000;BME280;11164;48.818;2.322;2022-07-23T01:50:52;100801.53;;;20.64;55.38
22000;BME280;11164;48.818;2.322;2022-07-23T01:53:18;100799.19;;;20.77;55.12
22000;BME280;11164;48.818;2.322;2022-07-23T01:55:43;100792.88;;;20.82;54.95
22000;BME280;11164;48.818;2.322;2022-07-23T01:58:09;100794.59;;;20.88;54.81
22000;BME280;11164;48.818;2.322;2022-07-23T02:00:34;100793.19;;;20.86;54.93
22000;BME280;11164;48.818;2.322;2022-07-23T02:02:59;100788.22;;;20.77;54.95
22000;BME280;11164;48.818;2.322;2022-07-23T02:05:25;100790.69;;;20.79;55.00
22000;BME280;11164;48.818;2.322;2022-07-23T02:07:51;100796.47;;;20.83;54.93
22000;BME280;11164;48.818;2.322;2022-07-23T02:10:16;100801.56;;;20.69;55.16
22000;BME280;11164;48.818;2.322;2022-07-23T02:12:42;100787.63;;;20.75;54.97
22000;BME280;11164;48.818;2.322;2022-07-23T02:15:07;100793.69;;;20.77;55.17
22000;BME280;11164;48.818;2.322;2022-07-23T02:17:33;100796.41;;;20.72;55.05
22000;BME280;11164;48.818;2.322;2022-07-23T02:19:59;100790.09;;;20.77;55.05
22000;BME280;11164;48.818;2.322;2022-07-23T02:22:25;100795.38;;;20.84;54.79
22000;BME280;11164;48.818;2.322;2022-07-23T02:24:50;100797.63;;;20.92;54.58
22000;BME280;11164;48.818;2.322;2022-07-23T02:27:15;100795.47;;;20.99;54.46
22000;BME280;11164;48.818;2.322;2022-07-23T02:29:41;100797.97;;;21.00;54.43
22000;BME280;11164;48.818;2.322;2022-07-23T02:32:06;100812.22;;;21.03;54.52
22000;BME280;11164;48.818;2.322;2022-07-23T02:34:31;100812.84;;;20.72;54.93
22000;BME280;11164;48.818;2.322;2022-07-23T02:36:57;100811.97;;;20.72;54.99
22000;BME280;11164;48.818;2.322;2022-07-23T02:39:22;100808.78;;;20.80;54.86
22000;BME280;11164;48.818;2.322;2022-07-23T02:41:47;100812.16;;;20.92;54.47
22000;BME280;11164;48.818;2.322;2022-07-23T02:44:13;100819.25;;;20.88;54.64
22000;BME280;11164;48.818;2.322;2022-07-23T02:46:38;100817.72;;;20.70;54.94
22000;BME280;11164;48.818;2.322;2022-07-23T02:49:03;100813.91;;;20.71;54.76
22000;BME280;11164;48.818;2.322;2022-07-23T02:51:31;100816.72;;;20.81;54.76
22000;BME280;11164;48.818;2.322;2022-07-23T02:53:56;100814.97;;;20.70;54.89
22000;BME280;11164;48.818;2.322;2022-07-23T02:56:22;100810.66;;;20.47;55.29
22000;BME280;11164;48.818;2.322;2022-07-23T02:58:47;100821.66;;;20.52;54.91
22000;BME280;11164;48.818;2.322;2022-07-23T03:01:12;100826.69;;;20.60;54.93
22000;BME280;11164;48.818;2.322;2022-07-23T03:03:38;100825.63;;;20.67;54.77
22000;BME280;11164;48.818;2.322;2022-07-23T03:06:03;100826.75;;;20.66;55.00
22000;BME280;11164;48.818;2.322;2022-07-23T03:08:29;100828.38;;;20.67;54.67
22000;BME280;11164;48.818;2.322;2022-07-23T03:10:54;100830.09;;;20.73;54.66
22000;BME280;11164;48.818;2.322;2022-07-23T03:13:19;100842.38;;;20.65;54.78
22000;BME280;11164;48.818;2.322;2022-07-23T03:15:45;100840.16;;;20.40;55.32
22000;BME280;11164;48.818;2.322;2022-07-23T03:18:10;100837.09;;;20.58;54.99
22000;BME280;11164;48.818;2.322;2022-07-23T03:20:35;100836.78;;;20.55;55.07
22000;BME280;11164;48.818;2.322;2022-07-23T03:23:01;100840.00;;;20.52;55.22
22000;BME280;11164;48.818;2.322;2022-07-23T03:25:26;100842.75;;;20.52;55.06
22000;BME280;11164;48.818;2.322;2022-07-23T03:27:51;100842.19;;;20.50;54.95
22000;BME280;11164;48.818;2.322;2022-07-23T03:30:17;100841.84;;;20.41;55.40
22000;BME280;11164;48.818;2.322;2022-07-23T03:32:42;100850.19;;;20.56;55.04
22000;BME280;11164;48.818;2.322;2022-07-23T03:35:08;100847.50;;;20.61;54.98
22000;BME280;11164;48.818;2.322;2022-07-23T03:37:34;100854.34;;;20.59;55.21
22000;BME280;11164;48.818;2.322;2022-07-23T03:39:59;100858.41;;;20.56;55.38
22000;BME280;11164;48.818;2.322;2022-07-23T03:42:25;100851.31;;;20.55;55.55
22000;BME280;11164;48.818;2.322;2022-07-23T03:44:50;100849.56;;;20.49;55.40
22000;BME280;11164;48.818;2.322;2022-07-23T03:47:15;100842.91;;;20.40;55.96
22000;BME280;11164;48.818;2.322;2022-07-23T03:49:46;100836.91;;;20.43;55.83
22000;BME280;11164;48.818;2.322;2022-07-23T03:52:12;100846.09;;;20.54;55.27
22000;BME280;11164;48.818;2.322;2022-07-23T03:54:37;100848.47;;;20.50;55.76
22000;BME280;11164;48.818;2.322;2022-07-23T03:57:03;100855.28;;;20.48;55.87
22000;BME280;11164;48.818;2.322;2022-07-23T03:59:28;100860.22;;;20.46;55.62
22000;BME280;11164;48.818;2.322;2022-07-23T04:01:53;100864.63;;;20.47;55.81
22000;BME280;11164;48.818;2.322;2022-07-23T04:04:19;100854.38;;;20.37;56.18
22000;BME280;11164;48.818;2.322;2022-07-23T04:06:44;100853.75;;;20.30;56.26
22000;BME280;11164;48.818;2.322;2022-07-23T04:09:09;100870.75;;;20.32;56.18
22000;BME280;11164;48.818;2.322;2022-07-23T04:11:35;100858.91;;;20.26;56.39
22000;BME280;11164;48.818;2.322;2022-07-23T04:14:00;100859.59;;;20.38;55.95
22000;BME280;11164;48.818;2.322;2022-07-23T04:16:25;100865.56;;;20.35;56.01
22000;BME280;11164;48.818;2.322;2022-07-23T04:18:51;100873.44;;;20.27;56.02
22000;BME280;11164;48.818;2.322;2022-07-23T04:21:17;100869.81;;;19.99;56.46
22000;BME280;11164;48.818;2.322;2022-07-23T04:23:42;100862.00;;;20.08;56.65
22000;BME280;11164;48.818;2.322;2022-07-23T04:26:08;100852.72;;;20.09;56.46
22000;BME280;11164;48.818;2.322;2022-07-23T04:28:33;100859.50;;;20.06;56.50
22000;BME280;11164;48.818;2.322;2022-07-23T04:30:59;100863.47;;;20.15;56.25
22000;BME280;11164;48.818;2.322;2022-07-23T04:33:24;100872.69;;;20.09;56.64
22000;BME280;11164;48.818;2.322;2022-07-23T04:35:50;100862.22;;;20.01;56.73
22000;BME280;11164;48.818;2.322;2022-07-23T04:38:15;100857.88;;;20.05;56.44
22000;BME280;11164;48.818;2.322;2022-07-23T04:40:40;100862.84;;;20.08;56.28
22000;BME280;11164;48.818;2.322;2022-07-23T04:43:06;100868.13;;;20.15;56.29
22000;BME280;11164;48.818;2.322;2022-07-23T04:45:31;100867.44;;;20.30;55.89
22000;BME280;11164;48.818;2.322;2022-07-23T04:47:56;100874.63;;;20.36;55.53
22000;BME280;11164;48.818;2.322;2022-07-23T04:50:22;100869.28;;;20.46;55.26
22000;BME280;11164;48.818;2.322;2022-07-23T04:52:48;100865.84;;;20.34;55.58
22000;BME280;11164;48.818;2.322;2022-07-23T04:55:14;100875.03;;;20.22;55.80
22000;BME280;11164;48.818;2.322;2022-07-23T04:57:39;100871.94;;;19.92;56.54
22000;BME280;11164;48.818;2.322;2022-07-23T05:00:06;100879.06;;;19.93;56.55
22000;BME280;11164;48.818;2.322;2022-07-23T05:02:32;100881.03;;;19.97;55.92
22000;BME280;11164;48.818;2.322;2022-07-23T05:04:57;100879.06;;;20.15;55.78
22000;BME280;11164;48.818;2.322;2022-07-23T05:07:22;100879.25;;;20.08;55.66
22000;BME280;11164;48.818;2.322;2022-07-23T05:09:48;100880.84;;;20.04;55.56
22000;BME280;11164;48.818;2.322;2022-07-23T05:12:13;100878.66;;;20.06;55.78
22000;BME280;11164;48.818;2.322;2022-07-23T05:14:38;100880.09;;;20.09;55.85
22000;BME280;11164;48.818;2.322;2022-07-23T05:17:04;100879.69;;;20.22;55.55
22000;BME280;11164;48.818;2.322;2022-07-23T05:19:30;100870.81;;;20.37;55.19
22000;BME280;11164;48.818;2.322;2022-07-23T05:21:55;100880.81;;;20.26;55.54
22000;BME280;11164;48.818;2.322;2022-07-23T05:24:20;100869.13;;;20.09;55.67
22000;BME280;11164;48.818;2.322;2022-07-23T05:26:46;100885.22;;;20.27;55.31
22000;BME280;11164;48.818;2.322;2022-07-23T05:29:11;100878.50;;;20.40;55.00
22000;BME280;11164;48.818;2.322;2022-07-23T05:31:36;100875.25;;;20.43;54.97
22000;BME280;11164;48.818;2.322;2022-07-23T05:34:02;100868.63;;;20.12;55.44
22000;BME280;11164;48.818;2.322;2022-07-23T05:36:27;100873.97;;;20.01;55.78
22000;BME280;11164;48.818;2.322;2022-07-23T05:38:52;100882.66;;;19.76;56.18
22000;BME280;11164;48.818;2.322;2022-07-23T05:41:18;100878.03;;;19.77;56.26
22000;BME280;11164;48.818;2.322;2022-07-23T05:43:43;100882.38;;;20.17;55.18
22000;BME280;11164;48.818;2.322;2022-07-23T05:46:09;100884.28;;;20.43;54.68
22000;BME280;11164;48.818;2.322;2022-07-23T05:48:34;100887.59;;;20.46;54.55
22000;BME280;11164;48.818;2.322;2022-07-23T05:51:00;100887.84;;;20.44;54.86
22000;BME280;11164;48.818;2.322;2022-07-23T05:53:26;100891.72;;;20.21;55.27
22000;BME280;11164;48.818;2.322;2022-07-23T05:55:51;100897.06;;;20.11;55.54
22000;BME280;11164;48.818;2.322;2022-07-23T05:58:17;100897.38;;;19.92;55.77
22000;BME280;11164;48.818;2.322;2022-07-23T06:00:42;100905.41;;;19.99;55.65
22000;BME280;11164;48.818;2.322;2022-07-23T06:03:07;100895.22;;;20.16;55.34
22000;BME280;11164;48.818;2.322;2022-07-23T06:05:33;100899.38;;;20.19;55.32
22000;BME280;11164;48.818;2.322;2022-07-23T06:07:58;100906.88;;;20.29;55.18
22000;BME280;11164;48.818;2.322;2022-07-23T06:10:24;100904.09;;;20.23;55.49
22000;BME280;11164;48.818;2.322;2022-07-23T06:12:49;100904.97;;;20.07;55.57
22000;BME280;11164;48.818;2.322;2022-07-23T06:15:14;100911.94;;;20.20;55.66
22000;BME280;11164;48.818;2.322;2022-07-23T06:17:40;100905.28;;;20.33;55.06
22000;BME280;11164;48.818;2.322;2022-07-23T06:20:08;100903.34;;;20.33;55.27
22000;BME280;11164;48.818;2.322;2022-07-23T06:22:34;100907.13;;;20.27;55.23
22000;BME280;11164;48.818;2.322;2022-07-23T06:24:59;100910.56;;;20.17;55.69
22000;BME280;11164;48.818;2.322;2022-07-23T06:27:25;100908.72;;;20.23;55.47
22000;BME280;11164;48.818;2.322;2022-07-23T06:29:50;100913.69;;;20.04;55.96
22000;BME280;11164;48.818;2.322;2022-07-23T06:32:16;100913.94;;;20.24;55.46
22000;BME280;11164;48.818;2.322;2022-07-23T06:34:41;100923.94;;;20.36;55.24
22000;BME280;11164;48.818;2.322;2022-07-23T06:37:06;100924.00;;;20.19;55.50
22000;BME280;11164;48.818;2.322;2022-07-23T06:39:32;100932.09;;;20.09;55.83
22000;BME280;11164;48.818;2.322;2022-07-23T06:41:58;100933.16;;;20.30;55.14
22000;BME280;11164;48.818;2.322;2022-07-23T06:44:23;100938.06;;;20.28;55.21
22000;BME280;11164;48.818;2.322;2022-07-23T06:46:49;100939.75;;;20.29;55.00
22000;BME280;11164;48.818;2.322;2022-07-23T06:49:14;100935.00;;;20.46;54.94
22000;BME280;11164;48.818;2.322;2022-07-23T06:51:39;100934.63;;;20.59;54.75
22000;BME280;11164;48.818;2.322;2022-07-23T06:54:05;100930.16;;;20.80;54.44
22000;BME280;11164;48.818;2.322;2022-07-23T06:56:30;100934.41;;;20.93;54.13
22000;BME280;11164;48.818;2.322;2022-07-23T06:58:56;100929.69;;;20.89;54.42
22000;BME280;11164;48.818;2.322;2022-07-23T07:01:21;100934.00;;;21.12;54.04
22000;BME280;11164;48.818;2.322;2022-07-23T07:03:47;100937.47;;;20.97;54.26
22000;BME280;11164;48.818;2.322;2022-07-23T07:06:14;100938.03;;;20.72;54.91
22000;BME280;11164;48.818;2.322;2022-07-23T07:08:39;100940.75;;;20.72;54.84
22000;BME280;11164;48.818;2.322;2022-07-23T07:11:05;100944.09;;;20.74;54.79
22000;BME280;11164;48.818;2.322;2022-07-23T07:13:30;100949.66;;;20.84;54.51
22000;BME280;11164;48.818;2.322;2022-07-23T07:15:55;100957.81;;;21.06;54.09
22000;BME280;11164;48.818;2.322;2022-07-23T07:18:21;100957.56;;;20.80;54.53
22000;BME280;11164;48.818;2.322;2022-07-23T07:20:46;100963.47;;;20.94;54.28
22000;BME280;11164;48.818;2.322;2022-07-23T07:23:12;100965.53;;;21.09;54.18
22000;BME280;11164;48.818;2.322;2022-07-23T07:25:39;100967.91;;;21.28;53.78
22000;BME280;11164;48.818;2.322;2022-07-23T07:28:05;100961.94;;;21.36;53.59
22000;BME280;11164;48.818;2.322;2022-07-23T07:30:30;100965.63;;;21.19;54.08
22000;BME280;11164;48.818;2.322;2022-07-23T07:32:55;100971.75;;;21.27;54.22
22000;BME280;11164;48.818;2.322;2022-07-23T07:35:21;100973.53;;;21.48;53.30
22000;BME280;11164;48.818;2.322;2022-07-23T07:37:46;100975.69;;;21.41;53.63
22000;BME280;11164;48.818;2.322;2022-07-23T07:40:11;100979.09;;;21.59;53.48
22000;BME280;11164;48.818;2.322;2022-07-23T07:42:50;100969.13;;;21.42;53.48
22000;BME280;11164;48.818;2.322;2022-07-23T07:45:19;100978.81;;;21.23;53.74
22000;BME280;11164;48.818;2.322;2022-07-23T07:47:45;100983.91;;;21.41;53.64
22000;BME280;11164;48.818;2.322;2022-07-23T07:50:10;100986.41;;;21.43;53.53
22000;BME280;11164;48.818;2.322;2022-07-23T07:52:36;100993.25;;;20.86;54.69
22000;BME280;11164;48.818;2.322;2022-07-23T07:55:06;100984.84;;;20.70;54.69
22000;BME280;11164;48.818;2.322;2022-07-23T07:57:33;100985.16;;;20.69;54.62
22000;BME280;11164;48.818;2.322;2022-07-23T07:59:58;100987.59;;;20.70;54.50
22000;BME280;11164;48.818;2.322;2022-07-23T08:02:24;100990.28;;;21.19;53.51
22000;BME280;11164;48.818;2.322;2022-07-23T08:04:49;100990.59;;;21.23;53.79
22000;BME280;11164;48.818;2.322;2022-07-23T08:07:15;100988.94;;;21.22;53.73
22000;BME280;11164;48.818;2.322;2022-07-23T08:09:41;101004.47;;;21.39;53.42
22000;BME280;11164;48.818;2.322;2022-07-23T08:12:06;100998.56;;;21.25;53.81
22000;BME280;11164;48.818;2.322;2022-07-23T08:14:32;101006.03;;;21.02;54.28
22000;BME280;11164;48.818;2.322;2022-07-23T08:16:57;100989.53;;;21.24;53.95
22000;BME280;11164;48.818;2.322;2022-07-23T08:19:23;100995.09;;;21.34;53.55
22000;BME280;11164;48.818;2.322;2022-07-23T08:21:48;101005.75;;;21.63;52.93
22000;BME280;11164;48.818;2.322;2022-07-23T08:24:13;100999.53;;;21.73;53.12
22000;BME280;11164;48.818;2.322;2022-07-23T08:26:39;101007.13;;;21.61;53.38
22000;BME280;11164;48.818;2.322;2022-07-23T08:29:04;101000.41;;;21.84;52.85
22000;BME280;11164;48.818;2.322;2022-07-23T08:31:30;101006.81;;;21.95;52.61
22000;BME280;11164;48.818;2.322;2022-07-23T08:33:58;101009.91;;;22.03;52.73
22000;BME280;11164;48.818;2.322;2022-07-23T08:36:23;101016.50;;;22.02;52.49
22000;BME280;11164;48.818;2.322;2022-07-23T08:38:48;101019.56;;;22.11;52.50
22000;BME280;11164;48.818;2.322;2022-07-23T08:41:14;101030.06;;;22.29;52.37
22000;BME280;11164;48.818;2.322;2022-07-23T08:43:40;101026.84;;;21.95;52.87
22000;BME280;11164;48.818;2.322;2022-07-23T08:46:06;101034.19;;;21.84;52.87
22000;BME280;11164;48.818;2.322;2022-07-23T08:48:35;101034.41;;;21.78;52.62
22000;BME280;11164;48.818;2.322;2022-07-23T08:51:03;101025.38;;;21.82;52.54
22000;BME280;11164;48.818;2.322;2022-07-23T08:53:30;101033.59;;;21.77;52.73
22000;BME280;11164;48.818;2.322;2022-07-23T08:55:57;101037.84;;;21.95;52.54
22000;BME280;11164;48.818;2.322;2022-07-23T08:58:24;101032.25;;;22.22;52.05
22000;BME280;11164;48.818;2.322;2022-07-23T09:00:49;101036.69;;;22.28;51.93
22000;BME280;11164;48.818;2.322;2022-07-23T09:03:20;101029.94;;;22.57;51.40
22000;BME280;11164;48.818;2.322;2022-07-23T09:05:47;101028.91;;;22.15;51.86
22000;BME280;11164;48.818;2.322;2022-07-23T09:08:16;101034.72;;;22.24;51.85
22000;BME280;11164;48.818;2.322;2022-07-23T09:11:01;101034.28;;;22.42;50.83
22000;BME280;11164;48.818;2.322;2022-07-23T09:16:05;101036.53;;;22.03;51.72
22000;BME280;11164;48.818;2.322;2022-07-23T09:18:43;101041.22;;;22.07;51.86
22000;BME280;11164;48.818;2.322;2022-07-23T09:21:12;101026.75;;;22.22;51.42
22000;BME280;11164;48.818;2.322;2022-07-23T09:23:42;101028.91;;;22.78;50.14
22000;BME280;11164;48.818;2.322;2022-07-23T09:26:28;101024.84;;;22.91;48.43
22000;BME280;11164;48.818;2.322;2022-07-23T09:31:56;101038.91;;;23.10;49.35
22000;BME280;11164;48.818;2.322;2022-07-23T09:34:27;101031.50;;;23.26;49.37
22000;BME280;11164;48.818;2.322;2022-07-23T09:36:55;101038.69;;;23.53;49.05
22000;BME280;11164;48.818;2.322;2022-07-23T09:39:29;101032.63;;;23.51;48.77
22000;BME280;11164;48.818;2.322;2022-07-23T09:41:56;101036.72;;;23.84;48.17
22000;BME280;11164;48.818;2.322;2022-07-23T09:44:22;101029.75;;;24.33;47.53
22000;BME280;11164;48.818;2.322;2022-07-23T09:46:50;101026.31;;;23.66;48.30
22000;BME280;11164;48.818;2.322;2022-07-23T09:49:21;101027.09;;;23.82;47.43
22000;BME280;11164;48.818;2.322;2022-07-23T09:51:59;101035.38;;;23.66;46.38
22000;BME280;11164;48.818;2.322;2022-07-23T09:54:38;101034.50;;;23.86;45.77
22000;BME280;11164;48.818;2.322;2022-07-23T09:57:09;101035.94;;;23.48;48.42
22000;BME280;11164;48.818;2.322;2022-07-23T09:59:39;101034.56;;;23.76;47.90
22000;BME280;11164;48.818;2.322;2022-07-23T10:02:07;101036.72;;;24.05;47.40
22000;BME280;11164;48.818;2.322;2022-07-23T10:04:33;101025.94;;;24.24;46.71
22000;BME280;11164;48.818;2.322;2022-07-23T10:07:02;101025.81;;;24.60;46.30
22000;BME280;11164;48.818;2.322;2022-07-23T10:09:33;101017.13;;;24.82;44.92
22000;BME280;11164;48.818;2.322;2022-07-23T10:12:01;101028.06;;;24.47;46.79
22000;BME280;11164;48.818;2.322;2022-07-23T10:14:44;101023.34;;;24.48;46.53
22000;BME280;11164;48.818;2.322;2022-07-23T10:17:10;101022.25;;;24.54;46.57
22000;BME280;11164;48.818;2.322;2022-07-23T10:19:36;101032.59;;;24.12;47.08
22000;BME280;11164;48.818;2.322;2022-07-23T10:22:03;101025.16;;;24.13;46.69
22000;BME280;11164;48.818;2.322;2022-07-23T10:24:59;101036.69;;;24.20;45.67
22000;BME280;11164;48.818;2.322;2022-07-23T10:30:51;101019.06;;;24.81;44.47
22000;BME280;11164;48.818;2.322;2022-07-23T10:33:46;101022.56;;;24.42;44.53
22000;BME280;11164;48.818;2.322;2022-07-23T10:39:30;101015.13;;;24.98;42.55
22000;BME280;11164;48.818;2.322;2022-07-23T10:42:11;101032.63;;;25.22;43.35
22000;BME280;11164;48.818;2.322;2022-07-23T10:47:07;101026.75;;;24.89;45.05
22000;BME280;11164;48.818;2.322;2022-07-23T10:49:42;101042.53;;;24.84;45.32
22000;BME280;11164;48.818;2.322;2022-07-23T10:54:55;101032.91;;;24.71;44.92
22000;BME280;11164;48.818;2.322;2022-07-23T10:57:25;101050.09;;;24.47;45.35
22000;BME280;11164;48.818;2.322;2022-07-23T11:02:38;101058.19;;;24.18;45.96
22000;BME280;11164;48.818;2.322;2022-07-23T11:05:08;101050.97;;;24.38;45.48
22000;BME280;11164;48.818;2.322;2022-07-23T11:07:36;101052.22;;;24.71;44.85
22000;BME280;11164;48.818;2.322;2022-07-23T11:10:02;101059.81;;;24.24;45.16
22000;BME280;11164;48.818;2.322;2022-07-23T11:15:00;101075.59;;;23.52;45.88
22000;BME280;11164;48.818;2.322;2022-07-23T11:17:27;101067.59;;;23.96;45.63
22000;BME280;11164;48.818;2.322;2022-07-23T11:25:08;101077.50;;;23.67;46.01
22000;BME280;11164;48.818;2.322;2022-07-23T11:27:41;101074.47;;;23.99;45.63
22000;BME280;11164;48.818;2.322;2022-07-23T11:30:08;101071.41;;;24.26;45.18
22000;BME280;11164;48.818;2.322;2022-07-23T11:32:36;101064.50;;;24.99;43.91
22000;BME280;11164;48.818;2.322;2022-07-23T11:35:19;101058.81;;;24.80;42.98
22000;BME280;11164;48.818;2.322;2022-07-23T11:37:45;101064.72;;;24.43;44.53
22000;BME280;11164;48.818;2.322;2022-07-23T11:40:13;101067.53;;;24.22;45.22
22000;BME280;11164;48.818;2.322;2022-07-23T11:45:18;101060.88;;;25.04;43.72
22000;BME280;11164;48.818;2.322;2022-07-23T11:47:44;101062.13;;;24.77;44.05
22000;BME280;11164;48.818;2.322;2022-07-23T11:50:09;101066.91;;;25.06;43.67
22000;BME280;11164;48.818;2.322;2022-07-23T11:52:34;101066.34;;;24.54;44.50
22000;BME280;11164;48.818;2.322;2022-07-23T11:55:06;101064.16;;;24.51;44.54
22000;BME280;11164;48.818;2.322;2022-07-23T11:57:37;101074.31;;;24.66;42.88
22000;BME280;11164;48.818;2.322;2022-07-23T12:02:50;101059.38;;;24.77;43.75
22000;BME280;11164;48.818;2.322;2022-07-23T12:05:23;101054.84;;;24.97;43.40
22000;BME280;11164;48.818;2.322;2022-07-23T12:07:53;101051.53;;;25.44;42.54
22000;BME280;11164;48.818;2.322;2022-07-23T12:12:50;101050.34;;;25.51;42.54
22000;BME280;11164;48.818;2.322;2022-07-23T12:15:21;101058.78;;;25.30;43.17
22000;BME280;11164;48.818;2.322;2022-07-23T12:17:49;101058.75;;;25.35;42.91
22000;BME280;11164;48.818;2.322;2022-07-23T12:20:16;101045.03;;;25.25;42.83
22000;BME280;11164;48.818;2.322;2022-07-23T12:22:45;101046.09;;;25.34;42.71
22000;BME280;11164;48.818;2.322;2022-07-23T12:25:14;101060.13;;;25.77;42.01
22000;BME280;11164;48.818;2.322;2022-07-23T12:27:41;101056.50;;;25.77;41.91
22000;BME280;11164;48.818;2.322;2022-07-23T12:30:22;101051.56;;;25.39;41.09
22000;BME280;11164;48.818;2.322;2022-07-23T12:32:50;101045.69;;;25.06;43.02
22000;BME280;11164;48.818;2.322;2022-07-23T12:35:16;101047.00;;;25.19;42.30
22000;BME280;11164;48.818;2.322;2022-07-23T12:37:44;101042.16;;;25.40;41.97
22000;BME280;11164;48.818;2.322;2022-07-23T12:40:25;101056.66;;;25.91;38.64
22000;BME280;11164;48.818;2.322;2022-07-23T12:43:06;101045.13;;;25.83;40.89
22000;BME280;11164;48.818;2.322;2022-07-23T12:45:51;101051.38;;;26.18;38.43
22000;BME280;11164;48.818;2.322;2022-07-23T12:48:31;101047.25;;;25.92;39.91
22000;BME280;11164;48.818;2.322;2022-07-23T12:51:00;101041.91;;;26.00;40.57
22000;BME280;11164;48.818;2.322;2022-07-23T12:56:02;101027.19;;;26.29;38.38
22000;BME280;11164;48.818;2.322;2022-07-23T12:59:24;101029.69;;;26.31;38.01
22000;BME280;11164;48.818;2.322;2022-07-23T13:01:46;101027.75;;;26.07;38.49
22000;BME280;11164;48.818;2.322;2022-07-23T13:04:20;101016.34;;;26.38;39.63
22000;BME280;11164;48.818;2.322;2022-07-23T13:06:52;101016.19;;;26.91;38.88
22000;BME280;11164;48.818;2.322;2022-07-23T13:09:20;100992.72;;;26.89;38.93
22000;BME280;11164;48.818;2.322;2022-07-23T13:11:47;101018.88;;;27.15;38.48
22000;BME280;11164;48.818;2.322;2022-07-23T13:14:14;101015.25;;;26.39;39.71
22000;BME280;11164;48.818;2.322;2022-07-23T13:16:40;101023.44;;;26.20;39.99
22000;BME280;11164;48.818;2.322;2022-07-23T13:19:06;101020.97;;;26.67;39.25
22000;BME280;11164;48.818;2.322;2022-07-23T13:21:32;101014.38;;;26.63;39.16
22000;BME280;11164;48.818;2.322;2022-07-23T13:23:58;101003.56;;;27.23;38.37
22000;BME280;11164;48.818;2.322;2022-07-23T13:26:24;101010.81;;;27.00;38.79
22000;BME280;11164;48.818;2.322;2022-07-23T13:28:50;101012.53;;;27.15;38.26